createdAt,value
2023-01-03T00:00:35.231Z,0.00
2023-01-03T00:01:35.110Z,0.00
2023-01-03T00:02:35.183Z,0.00
2023-01-03T00:03:35.020Z,0.00
2023-01-03T00:04:35.064Z,0.00
2023-01-03T00:05:35.008Z,0.00
2023-01-03T00:06:34.888Z,0.00
2023-01-03T00:07:35.009Z,0.00
2023-01-03T00:08:34.797Z,0.00
2023-01-03T00:09:34.754Z,0.00
2023-01-03T00:10:34.711Z,0.00
2023-01-03T00:11:34.661Z,0.00
2023-01-03T00:12:34.616Z,0.00
2023-01-03T00:13:34.596Z,0.00
2023-01-03T00:14:34.531Z,0.00
2023-01-03T00:15:34.480Z,0.00
2023-01-03T00:16:34.490Z,0.00
2023-01-03T00:17:34.393Z,0.00
2023-01-03T00:18:34.346Z,0.00
2023-01-03T00:19:34.339Z,0.00
2023-01-03T00:20:34.258Z,0.00
2023-01-03T00:21:34.220Z,0.00
2023-01-03T00:22:34.172Z,0.00
2023-01-03T00:23:34.131Z,0.00
2023-01-03T00:24:34.083Z,0.00
2023-01-03T00:25:34.051Z,0.00
2023-01-03T00:26:34.014Z,0.00
2023-01-03T00:27:33.955Z,0.00
2023-01-03T00:28:33.903Z,0.00
2023-01-03T00:29:33.877Z,0.00
2023-01-03T00:30:33.833Z,0.00
2023-01-03T00:31:33.769Z,0.00
2023-01-03T00:32:33.723Z,0.00
2023-01-03T00:33:33.684Z,0.00
2023-01-03T00:34:33.648Z,0.00
2023-01-03T00:35:33.613Z,0.00
2023-01-03T00:36:33.549Z,0.00
2023-01-03T00:37:33.499Z,0.00
2023-01-03T00:38:33.460Z,0.00
2023-01-03T00:39:33.410Z,0.00
2023-01-03T00:40:33.367Z,0.00
2023-01-03T00:41:33.335Z,0.00
2023-01-03T00:42:33.297Z,0.00
2023-01-03T00:43:33.248Z,0.00
2023-01-03T00:44:33.192Z,0.00
2023-01-03T00:45:35.455Z,0.00
2023-01-03T00:46:33.157Z,0.00
2023-01-03T00:47:33.069Z,0.00
2023-01-03T00:48:33.013Z,0.00
2023-01-03T00:49:32.970Z,0.00
2023-01-03T00:50:32.923Z,0.00
2023-01-03T00:51:32.883Z,0.00
2023-01-03T00:52:32.842Z,0.00
2023-01-03T00:53:32.804Z,0.00
2023-01-03T00:54:32.746Z,0.00
2023-01-03T00:55:32.705Z,0.00
2023-01-03T00:56:32.683Z,0.00
2023-01-03T00:57:32.615Z,0.00
2023-01-03T00:58:32.565Z,0.00
2023-01-03T00:59:32.527Z,0.00
2023-01-03T01:00:32.472Z,0.00
2023-01-03T01:01:33.545Z,0.00
2023-01-03T01:02:32.494Z,0.00
2023-01-03T01:03:32.388Z,0.00
2023-01-03T01:04:32.307Z,0.00
2023-01-03T01:05:32.249Z,0.00
2023-01-03T01:06:32.208Z,0.00
2023-01-03T01:07:32.162Z,0.00
2023-01-03T01:08:32.126Z,0.00
2023-01-03T01:09:32.066Z,0.00
2023-01-03T01:10:32.051Z,0.00
2023-01-03T01:11:31.980Z,0.00
2023-01-03T01:12:31.951Z,0.00
2023-01-03T01:13:31.894Z,0.00
2023-01-03T01:14:31.847Z,0.00
2023-01-03T01:15:31.849Z,0.00
2023-01-03T01:16:31.832Z,0.00
2023-01-03T01:17:31.715Z,0.00
2023-01-03T01:18:31.692Z,0.00
2023-01-03T01:19:31.632Z,0.00
2023-01-03T01:20:31.577Z,0.00
2023-01-03T01:21:31.554Z,0.00
2023-01-03T01:22:31.493Z,0.00
2023-01-03T01:23:31.446Z,0.00
2023-01-03T01:24:31.424Z,0.00
2023-01-03T01:25:31.362Z,0.00
2023-01-03T01:26:31.316Z,0.00
2023-01-03T01:27:31.269Z,0.00
2023-01-03T01:28:31.219Z,0.00
2023-01-03T01:29:31.210Z,0.00
2023-01-03T01:30:31.132Z,0.00
2023-01-03T01:31:31.121Z,0.00
2023-01-03T01:32:31.161Z,0.00
2023-01-03T01:33:30.996Z,0.00
2023-01-03T01:34:30.952Z,0.00
2023-01-03T01:35:30.902Z,0.00
2023-01-03T01:36:30.869Z,0.00
2023-01-03T01:37:30.819Z,0.00
2023-01-03T01:38:30.795Z,0.00
2023-01-03T01:39:30.744Z,0.00
2023-01-03T01:40:30.684Z,0.00
2023-01-03T01:41:30.637Z,0.00
2023-01-03T01:42:31.153Z,0.00
2023-01-03T01:43:30.547Z,0.00
2023-01-03T01:44:30.522Z,0.00
2023-01-03T01:45:30.469Z,0.00
2023-01-03T01:46:30.471Z,0.00
2023-01-03T01:47:30.521Z,0.00
2023-01-03T01:48:30.325Z,0.00
2023-01-03T01:49:30.285Z,0.00
2023-01-03T01:50:30.237Z,0.00
2023-01-03T01:51:30.195Z,0.00
2023-01-03T01:52:30.152Z,0.00
2023-01-03T01:53:30.117Z,0.00
2023-01-03T01:54:30.055Z,0.00
2023-01-03T01:55:30.022Z,0.00
2023-01-03T01:56:29.969Z,0.00
2023-01-03T01:57:29.942Z,0.00
2023-01-03T01:58:29.880Z,0.00
2023-01-03T01:59:29.852Z,0.00
2023-01-03T02:00:29.805Z,0.00
2023-01-03T02:01:29.870Z,0.00
2023-01-03T02:02:29.940Z,0.00
2023-01-03T02:03:29.743Z,0.00
2023-01-03T02:04:29.611Z,0.00
2023-01-03T02:05:29.578Z,0.00
2023-01-03T02:06:29.520Z,0.00
2023-01-03T02:07:29.478Z,0.00
2023-01-03T02:08:29.432Z,0.00
2023-01-03T02:09:29.385Z,0.00
2023-01-03T02:10:29.339Z,0.00
2023-01-03T02:11:29.320Z,0.00
2023-01-03T02:12:29.246Z,0.00
2023-01-03T02:13:29.222Z,0.00
2023-01-03T02:14:29.165Z,0.00
2023-01-03T02:15:29.121Z,0.00
2023-01-03T02:16:29.193Z,0.00
2023-01-03T02:17:29.062Z,0.00
2023-01-03T02:18:28.976Z,0.00
2023-01-03T02:19:28.933Z,0.00
2023-01-03T02:20:28.909Z,0.00
2023-01-03T02:21:28.854Z,0.00
2023-01-03T02:22:28.811Z,0.00
2023-01-03T02:23:28.784Z,0.00
2023-01-03T02:24:28.707Z,0.00
2023-01-03T02:25:28.677Z,0.00
2023-01-03T02:26:28.630Z,0.00
2023-01-03T02:27:28.579Z,0.00
2023-01-03T02:28:28.527Z,0.00
2023-01-03T02:29:28.503Z,0.00
2023-01-03T02:30:28.448Z,0.00
2023-01-03T02:31:28.453Z,0.00
2023-01-03T02:32:28.362Z,0.00
2023-01-03T02:33:28.306Z,0.00
2023-01-03T02:34:28.272Z,0.00
2023-01-03T02:35:28.237Z,0.00
2023-01-03T02:36:28.176Z,0.00
2023-01-03T02:37:28.130Z,0.00
2023-01-03T02:38:28.084Z,0.00
2023-01-03T02:39:28.067Z,0.00
2023-01-03T02:40:27.997Z,0.00
2023-01-03T02:41:27.950Z,0.00
2023-01-03T02:42:27.907Z,0.00
2023-01-03T02:43:27.866Z,0.00
2023-01-03T02:44:27.817Z,0.00
2023-01-03T02:45:27.947Z,0.00
2023-01-03T02:46:27.755Z,0.00
2023-01-03T02:47:27.679Z,0.00
2023-01-03T02:48:27.640Z,0.00
2023-01-03T02:49:27.593Z,0.00
2023-01-03T02:50:27.548Z,0.00
2023-01-03T02:51:27.535Z,0.00
2023-01-03T02:52:27.480Z,0.00
2023-01-03T02:53:27.413Z,0.00
2023-01-03T02:54:27.370Z,0.00
2023-01-03T02:55:27.353Z,0.00
2023-01-03T02:56:27.281Z,0.00
2023-01-03T02:57:27.253Z,0.00
2023-01-03T02:58:27.190Z,0.00
2023-01-03T02:59:27.145Z,0.00
2023-01-03T03:00:27.096Z,0.00
2023-01-03T03:01:27.142Z,0.00
2023-01-03T03:02:27.228Z,0.00
2023-01-03T03:03:27.057Z,0.00
2023-01-03T03:04:26.921Z,0.00
2023-01-03T03:05:26.876Z,0.00
2023-01-03T03:06:26.834Z,0.00
2023-01-03T03:07:26.784Z,0.00
2023-01-03T03:08:26.744Z,0.00
2023-01-03T03:09:26.714Z,0.00
2023-01-03T03:10:26.669Z,0.00
2023-01-03T03:11:26.610Z,0.00
2023-01-03T03:12:26.570Z,0.00
2023-01-03T03:13:26.541Z,0.00
2023-01-03T03:14:26.545Z,0.00
2023-01-03T03:15:26.463Z,0.00
2023-01-03T03:16:26.440Z,0.00
2023-01-03T03:17:26.341Z,0.00
2023-01-03T03:18:26.297Z,0.00
2023-01-03T03:19:26.359Z,0.00
2023-01-03T03:20:26.206Z,0.00
2023-01-03T03:21:26.176Z,0.00
2023-01-03T03:22:26.116Z,0.00
2023-01-03T03:23:26.077Z,0.00
2023-01-03T03:24:26.025Z,0.00
2023-01-03T03:25:26.012Z,0.00
2023-01-03T03:26:25.937Z,0.00
2023-01-03T03:27:25.895Z,0.00
2023-01-03T03:28:25.884Z,0.00
2023-01-03T03:29:25.802Z,0.00
2023-01-03T03:30:25.755Z,0.00
2023-01-03T03:31:25.775Z,0.00
2023-01-03T03:32:25.667Z,0.00
2023-01-03T03:33:25.629Z,0.00
2023-01-03T03:34:25.583Z,0.00
2023-01-03T03:35:25.537Z,0.00
2023-01-03T03:36:25.486Z,0.00
2023-01-03T03:37:25.463Z,0.00
2023-01-03T03:38:25.393Z,0.00
2023-01-03T03:39:25.356Z,0.00
2023-01-03T03:40:25.309Z,0.00
2023-01-03T03:41:25.274Z,0.00
2023-01-03T03:42:25.222Z,0.00
2023-01-03T03:43:25.217Z,0.00
2023-01-03T03:44:25.125Z,0.00
2023-01-03T03:45:25.094Z,0.00
2023-01-03T03:46:25.043Z,0.00
2023-01-03T03:47:24.992Z,0.00
2023-01-03T03:48:24.953Z,0.00
2023-01-03T03:49:24.934Z,0.00
2023-01-03T03:50:24.868Z,0.00
2023-01-03T03:51:24.816Z,0.00
2023-01-03T03:52:24.783Z,0.00
2023-01-03T03:53:24.731Z,0.00
2023-01-03T03:54:24.692Z,0.00
2023-01-03T03:55:24.651Z,0.00
2023-01-03T03:56:24.595Z,0.00
2023-01-03T03:57:24.548Z,0.00
2023-01-03T03:58:24.499Z,0.00
2023-01-03T03:59:33.554Z,0.00
2023-01-03T04:00:24.412Z,0.00
2023-01-03T04:01:24.489Z,0.00
2023-01-03T04:02:24.441Z,0.00
2023-01-03T04:03:24.328Z,0.00
2023-01-03T04:04:24.234Z,0.00
2023-01-03T04:05:24.190Z,0.00
2023-01-03T04:06:24.145Z,0.00
2023-01-03T04:07:24.115Z,0.00
2023-01-03T04:08:24.059Z,0.00
2023-01-03T04:09:24.008Z,0.00
2023-01-03T04:10:23.964Z,0.00
2023-01-03T04:11:23.922Z,0.00
2023-01-03T04:12:23.877Z,0.00
2023-01-03T04:13:23.847Z,0.00
2023-01-03T04:14:23.784Z,0.00
2023-01-03T04:15:23.736Z,0.00
2023-01-03T04:16:23.742Z,0.00
2023-01-03T04:17:23.666Z,0.00
2023-01-03T04:18:23.601Z,0.00
2023-01-03T04:19:23.580Z,0.00
2023-01-03T04:20:23.517Z,0.00
2023-01-03T04:21:23.466Z,0.00
2023-01-03T04:22:23.427Z,0.00
2023-01-03T04:23:23.384Z,0.00
2023-01-03T04:24:23.331Z,0.00
2023-01-03T04:25:23.311Z,0.00
2023-01-03T04:26:23.274Z,0.00
2023-01-03T04:27:23.202Z,0.00
2023-01-03T04:28:23.161Z,0.00
2023-01-03T04:29:23.147Z,0.00
2023-01-03T04:30:23.070Z,0.00
2023-01-03T04:31:23.069Z,0.00
2023-01-03T04:32:22.986Z,0.00
2023-01-03T04:33:22.935Z,0.00
2023-01-03T04:34:22.903Z,0.00
2023-01-03T04:35:22.840Z,0.00
2023-01-03T04:36:22.795Z,0.00
2023-01-03T04:37:22.754Z,0.00
2023-01-03T04:38:22.706Z,0.00
2023-01-03T04:39:22.658Z,0.00
2023-01-03T04:40:22.722Z,0.00
2023-01-03T04:41:22.582Z,0.00
2023-01-03T04:42:22.539Z,0.00
2023-01-03T04:43:22.476Z,0.00
2023-01-03T04:44:22.436Z,0.00
2023-01-03T04:45:22.531Z,0.00
2023-01-03T04:46:22.444Z,0.00
2023-01-03T04:47:22.296Z,0.00
2023-01-03T04:48:22.266Z,0.00
2023-01-03T04:49:22.209Z,0.00
2023-01-03T04:50:22.163Z,0.00
2023-01-03T04:51:22.117Z,0.00
2023-01-03T04:52:22.122Z,0.00
2023-01-03T04:53:22.031Z,0.00
2023-01-03T04:54:21.984Z,0.00
2023-01-03T04:55:21.941Z,0.00
2023-01-03T04:56:21.901Z,0.00
2023-01-03T04:57:21.853Z,0.00
2023-01-03T04:58:21.832Z,0.00
2023-01-03T04:59:21.764Z,0.00
2023-01-03T05:00:21.708Z,0.00
2023-01-03T05:01:21.743Z,0.00
2023-01-03T05:02:21.690Z,0.00
2023-01-03T05:03:27.580Z,0.00
2023-01-03T05:04:21.659Z,0.00
2023-01-03T05:05:21.491Z,0.00
2023-01-03T05:06:21.446Z,0.00
2023-01-03T05:07:21.406Z,0.00
2023-01-03T05:08:21.359Z,0.00
2023-01-03T05:09:21.313Z,0.00
2023-01-03T05:10:21.286Z,0.00
2023-01-03T05:11:21.219Z,0.00
2023-01-03T05:12:21.185Z,0.00
2023-01-03T05:13:21.130Z,0.00
2023-01-03T05:14:21.102Z,0.00
2023-01-03T05:15:21.044Z,0.00
2023-01-03T05:16:21.092Z,0.00
2023-01-03T05:17:20.954Z,0.00
2023-01-03T05:18:20.910Z,0.00
2023-01-03T05:19:20.863Z,0.00
2023-01-03T05:20:20.816Z,0.00
2023-01-03T05:21:20.769Z,0.00
2023-01-03T05:22:20.736Z,0.00
2023-01-03T05:23:20.677Z,0.00
2023-01-03T05:24:20.637Z,0.00
2023-01-03T05:25:20.592Z,0.00
2023-01-03T05:26:20.547Z,0.00
2023-01-03T05:27:20.507Z,0.00
2023-01-03T05:28:20.601Z,0.00
2023-01-03T05:29:20.416Z,0.00
2023-01-03T05:30:20.398Z,0.00
2023-01-03T05:31:20.359Z,0.00
2023-01-03T05:32:20.327Z,0.00
2023-01-03T05:33:20.241Z,0.00
2023-01-03T05:34:20.205Z,0.00
2023-01-03T05:35:20.136Z,0.00
2023-01-03T05:36:20.100Z,0.00
2023-01-03T05:37:20.045Z,0.00
2023-01-03T05:38:20.003Z,0.00
2023-01-03T05:39:19.961Z,0.00
2023-01-03T05:40:20.086Z,0.00
2023-01-03T05:41:19.862Z,0.00
2023-01-03T05:42:19.822Z,0.00
2023-01-03T05:43:19.791Z,0.00
2023-01-03T05:44:19.734Z,0.00
2023-01-03T05:45:19.684Z,0.00
2023-01-03T05:46:19.801Z,0.00
2023-01-03T05:47:19.601Z,0.00
2023-01-03T05:48:19.555Z,0.00
2023-01-03T05:49:19.506Z,0.00
2023-01-03T05:50:19.466Z,0.00
2023-01-03T05:51:19.417Z,0.00
2023-01-03T05:52:19.393Z,0.00
2023-01-03T05:53:19.329Z,0.00
2023-01-03T05:54:19.287Z,0.00
2023-01-03T05:55:19.240Z,0.00
2023-01-03T05:56:19.204Z,0.00
2023-01-03T05:57:19.138Z,0.00
2023-01-03T05:58:19.149Z,0.00
2023-01-03T05:59:19.060Z,0.00
2023-01-03T06:03:46.931Z,0.00
2023-01-03T06:04:46.820Z,0.00
2023-01-03T06:05:50.461Z,0.00
2023-01-03T06:06:46.608Z,0.00
2023-01-03T06:07:46.588Z,0.00
2023-01-03T06:08:46.503Z,0.00
2023-01-03T06:09:46.605Z,0.00
2023-01-03T06:10:46.417Z,0.00
2023-01-03T06:11:46.422Z,0.00
2023-01-03T06:12:46.312Z,0.00
2023-01-03T06:13:46.428Z,0.00
2023-01-03T06:14:46.244Z,0.00
2023-01-03T06:15:46.337Z,0.00
2023-01-03T06:16:46.190Z,0.00
2023-01-03T06:17:46.247Z,0.00
2023-01-03T06:18:46.035Z,0.00
2023-01-03T06:19:46.066Z,0.00
2023-01-03T06:20:45.943Z,0.00
2023-01-03T06:21:46.079Z,0.00
2023-01-03T06:22:45.874Z,0.00
2023-01-03T06:23:45.911Z,0.00
2023-01-03T06:24:45.768Z,0.00
2023-01-03T06:25:45.899Z,0.00
2023-01-03T06:26:45.671Z,0.00
2023-01-03T06:27:45.811Z,0.00
2023-01-03T06:28:45.584Z,0.00
2023-01-03T06:29:45.926Z,0.00
2023-01-03T06:30:45.519Z,0.00
2023-01-03T06:31:45.533Z,0.00
2023-01-03T06:32:45.399Z,0.00
2023-01-03T06:33:45.599Z,0.00
2023-01-03T06:34:45.329Z,0.00
2023-01-03T06:35:45.456Z,0.00
2023-01-03T06:36:45.227Z,0.00
2023-01-03T06:37:45.374Z,0.00
2023-01-03T06:38:45.160Z,0.00
2023-01-03T06:39:45.183Z,0.00
2023-01-03T06:40:45.917Z,0.00
2023-01-03T06:41:45.091Z,0.00
2023-01-03T06:42:44.968Z,0.00
2023-01-03T06:43:45.056Z,0.00
2023-01-03T06:44:44.911Z,0.00
2023-01-03T06:45:44.863Z,0.00
2023-01-03T06:46:44.882Z,0.00
2023-01-03T06:47:44.728Z,0.00
2023-01-03T06:48:44.837Z,0.00
2023-01-03T06:49:44.667Z,0.00
2023-01-03T06:50:44.648Z,4.00
2023-01-03T06:51:44.545Z,4.00
2023-01-03T06:52:44.564Z,4.00
2023-01-03T06:53:44.471Z,4.00
2023-01-03T06:54:44.574Z,4.00
2023-01-03T06:55:44.386Z,8.00
2023-01-03T06:56:44.392Z,8.00
2023-01-03T06:57:44.279Z,12.00
2023-01-03T06:58:44.318Z,16.00
2023-01-03T06:59:44.183Z,16.00
2023-01-03T07:00:45.245Z,16.00
2023-01-03T07:01:44.158Z,20.00
2023-01-03T07:02:44.284Z,20.00
2023-01-03T07:03:44.008Z,24.00
2023-01-03T07:04:44.217Z,28.00
2023-01-03T07:05:43.949Z,28.00
2023-01-03T07:06:43.951Z,36.00
2023-01-03T07:07:43.832Z,36.00
2023-01-03T07:08:48.113Z,40.00
2023-01-03T07:09:43.736Z,40.00
2023-01-03T07:10:43.769Z,44.00
2023-01-03T07:11:43.723Z,48.00
2023-01-03T07:12:43.695Z,52.00
2023-01-03T07:13:43.555Z,56.00
2023-01-03T07:14:43.594Z,60.00
2023-01-03T07:15:43.504Z,64.00
2023-01-03T07:16:43.616Z,72.00
2023-01-03T07:17:43.420Z,76.00
2023-01-03T07:18:44.375Z,84.00
2023-01-03T07:19:43.282Z,92.00
2023-01-03T07:20:43.481Z,100.00
2023-01-03T07:21:43.189Z,112.00
2023-01-03T07:22:43.306Z,120.00
2023-01-03T07:23:43.132Z,124.00
2023-01-03T07:24:43.157Z,136.00
2023-01-03T07:25:43.013Z,144.00
2023-01-03T07:26:43.086Z,156.00
2023-01-03T07:27:43.025Z,168.00
2023-01-03T07:28:43.086Z,180.00
2023-01-03T07:29:42.859Z,196.00
2023-01-03T07:30:42.906Z,216.00
2023-01-03T07:31:42.779Z,232.00
2023-01-03T07:32:43.933Z,248.00
2023-01-03T07:33:42.663Z,260.00
2023-01-03T07:34:42.818Z,276.00
2023-01-03T07:35:42.565Z,296.00
2023-01-03T07:36:42.630Z,332.00
2023-01-03T07:37:42.470Z,364.00
2023-01-03T07:38:43.462Z,392.00
2023-01-03T07:39:42.380Z,404.00
2023-01-03T07:40:42.462Z,400.00
2023-01-03T07:41:42.288Z,404.00
2023-01-03T07:42:42.483Z,408.00
2023-01-03T07:43:42.197Z,420.00
2023-01-03T07:44:42.279Z,436.00
2023-01-03T07:45:42.128Z,452.00
2023-01-03T07:46:42.419Z,472.00
2023-01-03T07:47:42.020Z,492.00
2023-01-03T07:48:43.126Z,524.00
2023-01-03T07:49:41.939Z,560.00
2023-01-03T07:50:42.119Z,604.00
2023-01-03T07:51:41.845Z,640.00
2023-01-03T07:52:41.936Z,672.00
2023-01-03T07:53:41.751Z,692.00
2023-01-03T07:54:41.948Z,700.00
2023-01-03T07:55:41.677Z,704.00
2023-01-03T07:56:41.752Z,720.00
2023-01-03T07:57:41.575Z,744.00
2023-01-03T07:58:41.773Z,768.00
2023-01-03T07:59:41.515Z,788.00
2023-01-03T08:00:41.579Z,812.00
2023-01-03T08:01:41.757Z,844.00
2023-01-03T08:02:41.735Z,884.00
2023-01-03T08:03:41.308Z,928.00
2023-01-03T08:04:41.524Z,976.00
2023-01-03T08:05:41.216Z,1036.00
2023-01-03T08:06:42.238Z,1120.00
2023-01-03T08:07:41.171Z,1216.00
2023-01-03T08:08:41.229Z,1328.00
2023-01-03T08:09:41.031Z,1436.00
2023-01-03T08:10:41.043Z,1552.00
2023-01-03T08:11:40.938Z,1672.00
2023-01-03T08:12:41.053Z,1784.00
2023-01-03T08:13:41.104Z,1884.00
2023-01-03T08:14:40.894Z,1952.00
2023-01-03T08:15:40.808Z,1976.00
2023-01-03T08:16:40.936Z,2008.00
2023-01-03T08:17:40.665Z,2052.00
2023-01-03T08:18:40.691Z,2100.00
2023-01-03T08:19:45.476Z,2148.00
2023-01-03T08:20:40.696Z,2196.00
2023-01-03T08:21:40.486Z,2264.00
2023-01-03T08:22:40.510Z,2348.00
2023-01-03T08:23:40.405Z,2436.00
2023-01-03T08:24:40.539Z,2516.00
2023-01-03T08:25:40.591Z,2576.00
2023-01-03T08:26:40.338Z,2644.00
2023-01-03T08:27:43.911Z,2692.00
2023-01-03T08:28:40.350Z,2772.00
2023-01-03T08:29:40.147Z,2876.00
2023-01-03T08:30:40.164Z,2952.00
2023-01-03T08:31:40.149Z,2964.00
2023-01-03T08:32:40.390Z,2928.00
2023-01-03T08:33:39.948Z,2848.00
2023-01-03T08:34:39.988Z,2740.00
2023-01-03T08:35:39.861Z,2636.00
2023-01-03T08:36:39.998Z,2544.00
2023-01-03T08:37:39.780Z,2468.00
2023-01-03T08:38:40.016Z,2440.00
2023-01-03T08:39:39.679Z,2436.00
2023-01-03T08:40:42.128Z,2480.00
2023-01-03T08:41:39.588Z,2584.00
2023-01-03T08:42:39.644Z,2776.00
2023-01-03T08:43:39.637Z,3012.00
2023-01-03T08:44:39.479Z,3264.00
2023-01-03T08:45:39.659Z,3476.00
2023-01-03T08:46:39.413Z,3700.00
2023-01-03T08:47:39.464Z,3968.00
2023-01-03T08:48:39.280Z,4240.00
2023-01-03T08:49:39.236Z,4464.00
2023-01-03T08:50:39.585Z,4616.00
2023-01-03T08:51:39.143Z,4720.00
2023-01-03T08:52:39.192Z,4808.00
2023-01-03T08:53:39.058Z,4904.00
2023-01-03T08:54:39.271Z,5012.00
2023-01-03T08:55:39.217Z,5140.00
2023-01-03T08:56:38.917Z,5328.00
2023-01-03T08:57:39.028Z,5512.00
2023-01-03T08:58:38.838Z,5704.00
2023-01-03T08:59:38.836Z,5876.00
2023-01-03T09:00:38.742Z,6056.00
2023-01-03T09:01:40.107Z,6252.00
2023-01-03T09:02:39.060Z,6448.00
2023-01-03T09:03:38.696Z,6580.00
2023-01-03T09:04:38.678Z,6624.00
2023-01-03T09:05:38.526Z,6636.00
2023-01-03T09:06:38.691Z,6656.00
2023-01-03T09:07:38.691Z,6700.00
2023-01-03T09:08:38.384Z,6736.00
2023-01-03T09:09:38.498Z,6708.00
2023-01-03T09:10:42.209Z,6648.00
2023-01-03T09:11:38.244Z,6576.00
2023-01-03T09:12:38.323Z,6496.00
2023-01-03T09:13:38.554Z,6504.00
2023-01-03T09:14:38.106Z,6544.00
2023-01-03T09:15:38.129Z,6436.00
2023-01-03T09:16:38.035Z,6248.00
2023-01-03T09:17:38.151Z,6032.00
2023-01-03T09:18:37.929Z,5928.00
2023-01-03T09:19:38.027Z,5928.00
2023-01-03T09:20:37.839Z,5988.00
2023-01-03T09:21:37.971Z,6088.00
2023-01-03T09:22:37.763Z,6208.00
2023-01-03T09:23:37.788Z,6376.00
2023-01-03T09:24:37.655Z,6548.00
2023-01-03T09:25:37.833Z,6640.00
2023-01-03T09:26:37.564Z,6572.00
2023-01-03T09:27:37.612Z,6428.00
2023-01-03T09:28:37.489Z,6364.00
2023-01-03T09:29:37.619Z,6460.00
2023-01-03T09:30:37.396Z,6712.00
2023-01-03T09:31:40.031Z,7004.00
2023-01-03T09:32:37.304Z,7252.00
2023-01-03T09:33:37.466Z,7440.00
2023-01-03T09:34:37.212Z,7564.00
2023-01-03T09:35:37.277Z,7624.00
2023-01-03T09:36:37.135Z,7652.00
2023-01-03T09:37:37.096Z,7676.00
2023-01-03T09:38:37.215Z,7728.00
2023-01-03T09:39:37.093Z,7832.00
2023-01-03T09:40:36.965Z,7972.00
2023-01-03T09:41:37.095Z,8076.00
2023-01-03T09:42:36.863Z,8100.00
2023-01-03T09:43:36.986Z,7960.00
2023-01-03T09:44:36.764Z,7724.00
2023-01-03T09:45:36.916Z,7520.00
2023-01-03T09:46:36.728Z,7324.00
2023-01-03T09:47:36.734Z,7216.00
2023-01-03T09:48:36.617Z,7264.00
2023-01-03T09:49:36.582Z,7424.00
2023-01-03T09:50:57.177Z,7628.00
2023-01-03T09:51:36.463Z,7788.00
2023-01-03T09:52:36.404Z,7884.00
2023-01-03T09:53:36.465Z,7896.00
2023-01-03T09:54:36.332Z,7820.00
2023-01-03T09:55:36.331Z,7660.00
2023-01-03T09:56:36.228Z,7416.00
2023-01-03T09:57:36.204Z,7132.00
2023-01-03T09:58:36.175Z,6856.00
2023-01-03T09:59:36.506Z,6704.00
2023-01-03T10:00:36.086Z,6656.00
2023-01-03T10:01:36.199Z,6592.00
2023-01-03T10:02:36.057Z,6468.00
2023-01-03T10:03:38.034Z,6336.00
2023-01-03T10:04:35.922Z,6256.00
2023-01-03T10:05:35.943Z,6264.00
2023-01-03T10:06:35.833Z,6356.00
2023-01-03T10:07:35.746Z,6428.00
2023-01-03T10:08:35.699Z,6476.00
2023-01-03T10:09:35.898Z,6440.00
2023-01-03T10:10:35.622Z,6232.00
2023-01-03T10:11:35.631Z,5976.00
2023-01-03T10:12:35.532Z,5824.00
2023-01-03T10:13:35.478Z,5712.00
2023-01-03T10:14:35.432Z,5584.00
2023-01-03T10:15:35.644Z,5400.00
2023-01-03T10:16:35.389Z,5128.00
2023-01-03T10:17:35.411Z,4784.00
2023-01-03T10:18:35.258Z,4432.00
2023-01-03T10:19:35.206Z,4092.00
2023-01-03T10:20:43.785Z,3788.00
2023-01-03T10:21:35.118Z,3544.00
2023-01-03T10:22:35.073Z,3352.00
2023-01-03T10:23:35.029Z,3256.00
2023-01-03T10:24:34.982Z,3280.00
2023-01-03T10:25:34.944Z,3412.00
2023-01-03T10:26:34.906Z,3644.00
2023-01-03T10:27:34.846Z,3960.00
2023-01-03T10:28:34.809Z,4380.00
2023-01-03T10:29:34.774Z,4808.00
2023-01-03T10:30:34.715Z,5252.00
2023-01-03T10:31:34.732Z,5648.00
2023-01-03T10:32:34.639Z,5948.00
2023-01-03T10:33:34.584Z,6144.00
2023-01-03T10:34:34.538Z,6236.00
2023-01-03T10:35:34.492Z,6232.00
2023-01-03T10:36:34.452Z,6152.00
2023-01-03T10:37:34.402Z,6008.00
2023-01-03T10:38:40.329Z,5804.00
2023-01-03T10:39:34.312Z,5592.00
2023-01-03T10:40:34.270Z,5396.00
2023-01-03T10:41:34.226Z,5220.00
2023-01-03T10:42:34.180Z,5076.00
2023-01-03T10:43:34.150Z,4996.00
2023-01-03T10:44:34.108Z,5000.00
2023-01-03T10:45:40.684Z,5060.00
2023-01-03T10:46:34.134Z,5136.00
2023-01-03T10:47:33.959Z,5232.00
2023-01-03T10:48:52.647Z,5368.00
2023-01-03T10:49:33.869Z,5504.00
2023-01-03T10:50:33.851Z,5600.00
2023-01-03T10:51:40.316Z,5676.00
2023-01-03T10:52:33.742Z,5748.00
2023-01-03T10:53:33.690Z,5828.00
2023-01-03T10:54:33.663Z,5904.00
2023-01-03T10:55:33.607Z,5952.00
2023-01-03T10:56:33.561Z,6020.00
2023-01-03T10:57:33.506Z,6164.00
2023-01-03T10:58:36.535Z,6356.00
2023-01-03T10:59:33.421Z,6512.00
2023-01-03T11:00:33.393Z,6644.00
2023-01-03T11:01:33.412Z,6768.00
2023-01-03T11:02:33.416Z,6916.00
2023-01-03T11:03:33.368Z,7132.00
2023-01-03T11:04:33.201Z,7356.00
2023-01-03T11:05:33.158Z,7532.00
2023-01-03T11:06:33.132Z,7696.00
2023-01-03T11:07:33.064Z,7856.00
2023-01-03T11:08:33.023Z,8004.00
2023-01-03T11:09:32.977Z,8116.00
2023-01-03T11:10:32.934Z,8168.00
2023-01-03T11:11:32.885Z,8160.00
2023-01-03T11:12:32.856Z,8112.00
2023-01-03T11:13:32.815Z,8088.00
2023-01-03T11:14:32.760Z,8052.00
2023-01-03T11:15:37.864Z,8024.00
2023-01-03T11:16:32.707Z,8004.00
2023-01-03T11:17:32.619Z,7880.00
2023-01-03T11:18:32.576Z,7592.00
2023-01-03T11:19:32.589Z,7176.00
2023-01-03T11:20:32.488Z,6832.00
2023-01-03T11:21:32.444Z,6688.00
2023-01-03T11:22:35.582Z,6772.00
2023-01-03T11:23:32.353Z,7044.00
2023-01-03T11:24:32.307Z,7416.00
2023-01-03T11:25:32.301Z,7836.00
2023-01-03T11:26:32.227Z,8296.00
2023-01-03T11:27:32.176Z,8832.00
2023-01-03T11:28:32.131Z,9320.00
2023-01-03T11:29:32.089Z,9608.00
2023-01-03T11:30:32.046Z,9684.00
2023-01-03T11:31:32.062Z,9604.00
2023-01-03T11:32:31.984Z,9580.00
2023-01-03T11:33:31.920Z,9724.00
2023-01-03T11:34:55.057Z,10072.00
2023-01-03T11:35:31.824Z,10660.00
2023-01-03T11:36:31.808Z,11472.00
2023-01-03T11:37:31.732Z,12212.00
2023-01-03T11:38:31.702Z,12496.00
2023-01-03T11:39:31.646Z,12192.00
2023-01-03T11:40:31.606Z,11476.00
2023-01-03T11:41:31.558Z,10644.00
2023-01-03T11:42:31.518Z,9980.00
2023-01-03T11:43:31.484Z,9592.00
2023-01-03T11:44:31.431Z,9436.00
2023-01-03T11:45:31.600Z,9404.00
2023-01-03T11:46:31.407Z,9420.00
2023-01-03T11:47:31.297Z,9464.00
2023-01-03T11:48:31.250Z,9564.00
2023-01-03T11:49:31.236Z,9672.00
2023-01-03T11:50:31.187Z,9796.00
2023-01-03T11:51:31.206Z,9956.00
2023-01-03T11:52:31.075Z,10144.00
2023-01-03T11:53:31.036Z,10296.00
2023-01-03T11:54:31.014Z,10356.00
2023-01-03T11:55:30.942Z,10348.00
2023-01-03T11:56:30.895Z,10252.00
2023-01-03T11:57:30.889Z,9952.00
2023-01-03T11:58:30.816Z,9324.00
2023-01-03T11:59:30.766Z,8592.00
2023-01-03T12:00:30.726Z,7924.00
2023-01-03T12:01:34.049Z,7424.00
2023-01-03T12:02:30.703Z,7152.00
2023-01-03T12:03:30.736Z,7020.00
2023-01-03T12:04:30.736Z,7020.00
2023-01-03T12:05:30.508Z,7088.00
2023-01-03T12:06:30.457Z,7160.00
2023-01-03T12:07:47.571Z,7280.00
2023-01-03T12:08:30.368Z,7504.00
2023-01-03T12:09:30.362Z,7872.00
2023-01-03T12:10:30.283Z,8344.00
2023-01-03T12:11:30.240Z,8800.00
2023-01-03T12:12:30.195Z,9116.00
2023-01-03T12:13:30.203Z,9212.00
2023-01-03T12:14:30.107Z,9108.00
2023-01-03T12:15:30.256Z,8952.00
2023-01-03T12:16:30.019Z,8732.00
2023-01-03T12:17:29.971Z,8520.00
2023-01-03T12:18:29.930Z,8424.00
2023-01-03T12:19:29.888Z,8332.00
2023-01-03T12:20:29.840Z,8228.00
2023-01-03T12:21:29.836Z,8148.00
2023-01-03T12:22:29.767Z,8296.00
2023-01-03T12:23:29.715Z,8632.00
2023-01-03T12:24:29.661Z,9120.00
2023-01-03T12:25:29.632Z,9664.00
2023-01-03T12:26:29.579Z,10324.00
2023-01-03T12:27:29.556Z,10956.00
2023-01-03T12:28:29.487Z,11520.00
2023-01-03T12:29:29.447Z,11840.00
2023-01-03T12:30:29.411Z,11940.00
2023-01-03T12:31:31.933Z,11816.00
2023-01-03T12:32:29.316Z,11768.00
2023-01-03T12:33:29.286Z,11568.00
2023-01-03T12:34:29.239Z,11304.00
2023-01-03T12:35:29.188Z,10932.00
2023-01-03T12:36:29.139Z,10508.00
2023-01-03T12:37:29.096Z,10140.00
2023-01-03T12:38:29.051Z,9816.00
2023-01-03T12:39:32.985Z,9600.00
2023-01-03T12:40:28.987Z,9560.00
2023-01-03T12:41:28.917Z,9676.00
2023-01-03T12:42:28.873Z,9856.00
2023-01-03T12:43:28.838Z,10100.00
2023-01-03T12:44:28.793Z,10452.00
2023-01-03T12:45:34.223Z,10912.00
2023-01-03T12:46:28.784Z,11520.00
2023-01-03T12:47:28.655Z,11876.00
2023-01-03T12:48:28.609Z,12152.00